sensor_id;sensor_type;location;lat;lon;timestamp;P1;durP1;ratioP1;P2;durP2;ratioP2
44026;SDS011;29696;55.698;37.460;2023-05-29T00:01:42;6.07;;;2.70;;
44026;SDS011;29696;55.698;37.460;2023-05-29T00:04:09;11.50;;;3.00;;
44026;SDS011;29696;55.698;37.460;2023-05-29T00:06:38;9.27;;;2.87;;
44026;SDS011;29696;55.698;37.460;2023-05-29T00:09:04;4.43;;;2.70;;
44026;SDS011;29696;55.698;37.460;2023-05-29T00:11:30;6.60;;;2.40;;
44026;SDS011;29696;55.698;37.460;2023-05-29T00:13:57;4.23;;;3.17;;
44026;SDS011;29696;55.698;37.460;2023-05-29T00:16:23;10.27;;;2.83;;
44026;SDS011;29696;55.698;37.460;2023-05-29T00:18:50;3.83;;;2.40;;
44026;SDS011;29696;55.698;37.460;2023-05-29T00:21:17;3.27;;;2.67;;
44026;SDS011;29696;55.698;37.460;2023-05-29T00:23:44;2.97;;;2.37;;
44026;SDS011;29696;55.698;37.460;2023-05-29T00:26:10;5.37;;;3.83;;
44026;SDS011;29696;55.698;37.460;2023-05-29T00:28:39;7.30;;;2.67;;
44026;SDS011;29696;55.698;37.460;2023-05-29T00:31:05;13.63;;;3.17;;
44026;SDS011;29696;55.698;37.460;2023-05-29T00:33:32;10.70;;;3.20;;
44026;SDS011;29696;55.698;37.460;2023-05-29T00:35:59;4.63;;;2.43;;
44026;SDS011;29696;55.698;37.460;2023-05-29T00:38:26;4.97;;;2.73;;
44026;SDS011;29696;55.698;37.460;2023-05-29T00:40:52;7.97;;;2.97;;
44026;SDS011;29696;55.698;37.460;2023-05-29T00:43:19;3.30;;;2.23;;
44026;SDS011;29696;55.698;37.460;2023-05-29T00:45:46;6.17;;;3.27;;
44026;SDS011;29696;55.698;37.460;2023-05-29T00:48:12;34.93;;;3.80;;
44026;SDS011;29696;55.698;37.460;2023-05-29T00:50:38;5.23;;;3.00;;
44026;SDS011;29696;55.698;37.460;2023-05-29T00:53:06;8.03;;;3.33;;
44026;SDS011;29696;55.698;37.460;2023-05-29T00:55:33;5.93;;;3.20;;
44026;SDS011;29696;55.698;37.460;2023-05-29T00:58:01;4.03;;;2.73;;
44026;SDS011;29696;55.698;37.460;2023-05-29T01:00:27;5.33;;;2.70;;
44026;SDS011;29696;55.698;37.460;2023-05-29T01:02:56;4.00;;;3.20;;
44026;SDS011;29696;55.698;37.460;2023-05-29T01:05:24;11.67;;;3.00;;
44026;SDS011;29696;55.698;37.460;2023-05-29T01:07:50;4.53;;;2.63;;
44026;SDS011;29696;55.698;37.460;2023-05-29T01:10:16;5.37;;;3.63;;
44026;SDS011;29696;55.698;37.460;2023-05-29T01:12:46;6.00;;;3.03;;
44026;SDS011;29696;55.698;37.460;2023-05-29T01:24:32;6.90;;;3.83;;
44026;SDS011;29696;55.698;37.460;2023-05-29T01:27:17;5.30;;;2.73;;
44026;SDS011;29696;55.698;37.460;2023-05-29T01:29:45;8.80;;;3.03;;
44026;SDS011;29696;55.698;37.460;2023-05-29T01:32:13;9.37;;;2.93;;
44026;SDS011;29696;55.698;37.460;2023-05-29T01:34:40;7.67;;;2.50;;
44026;SDS011;29696;55.698;37.460;2023-05-29T01:37:06;6.40;;;2.97;;
44026;SDS011;29696;55.698;37.460;2023-05-29T01:39:34;8.10;;;3.83;;
44026;SDS011;29696;55.698;37.460;2023-05-29T01:42:01;8.27;;;3.90;;
44026;SDS011;29696;55.698;37.460;2023-05-29T01:44:28;4.77;;;3.50;;
44026;SDS011;29696;55.698;37.460;2023-05-29T01:46:55;7.20;;;2.70;;
44026;SDS011;29696;55.698;37.460;2023-05-29T01:49:23;6.57;;;2.63;;
44026;SDS011;29696;55.698;37.460;2023-05-29T01:51:50;6.57;;;3.50;;
44026;SDS011;29696;55.698;37.460;2023-05-29T01:54:17;6.67;;;2.60;;
44026;SDS011;29696;55.698;37.460;2023-05-29T01:56:44;6.87;;;3.10;;
44026;SDS011;29696;55.698;37.460;2023-05-29T01:59:11;8.40;;;3.33;;
44026;SDS011;29696;55.698;37.460;2023-05-29T02:01:39;4.37;;;2.90;;
44026;SDS011;29696;55.698;37.460;2023-05-29T02:04:06;5.37;;;3.13;;
44026;SDS011;29696;55.698;37.460;2023-05-29T02:06:32;5.97;;;2.93;;
44026;SDS011;29696;55.698;37.460;2023-05-29T02:09:00;7.93;;;2.77;;
44026;SDS011;29696;55.698;37.460;2023-05-29T02:11:26;16.13;;;4.60;;
44026;SDS011;29696;55.698;37.460;2023-05-29T02:13:53;7.97;;;2.87;;
44026;SDS011;29696;55.698;37.460;2023-05-29T02:16:20;13.93;;;3.73;;
44026;SDS011;29696;55.698;37.460;2023-05-29T02:18:47;8.20;;;4.10;;
44026;SDS011;29696;55.698;37.460;2023-05-29T02:21:33;12.07;;;3.73;;
44026;SDS011;29696;55.698;37.460;2023-05-29T02:24:01;18.97;;;4.33;;
44026;SDS011;29696;55.698;37.460;2023-05-29T02:26:27;8.60;;;3.97;;
44026;SDS011;29696;55.698;37.460;2023-05-29T02:28:54;9.00;;;4.27;;
44026;SDS011;29696;55.698;37.460;2023-05-29T02:31:20;8.30;;;2.63;;
44026;SDS011;29696;55.698;37.460;2023-05-29T02:33:46;5.33;;;3.00;;
44026;SDS011;29696;55.698;37.460;2023-05-29T02:36:14;9.97;;;3.47;;
44026;SDS011;29696;55.698;37.460;2023-05-29T02:38:42;6.82;;;3.38;;
44026;SDS011;29696;55.698;37.460;2023-05-29T02:41:08;4.32;;;2.63;;
44026;SDS011;29696;55.698;37.460;2023-05-29T02:43:35;7.07;;;3.67;;
44026;SDS011;29696;55.698;37.460;2023-05-29T02:46:01;9.35;;;2.67;;
44026;SDS011;29696;55.698;37.460;2023-05-29T02:48:28;16.25;;;4.68;;
44026;SDS011;29696;55.698;37.460;2023-05-29T02:50:55;7.65;;;3.20;;
44026;SDS011;29696;55.698;37.460;2023-05-29T02:53:21;12.23;;;3.40;;
44026;SDS011;29696;55.698;37.460;2023-05-29T02:55:48;7.88;;;3.17;;
44026;SDS011;29696;55.698;37.460;2023-05-29T02:58:15;6.63;;;2.92;;
44026;SDS011;29696;55.698;37.460;2023-05-29T03:00:42;9.50;;;3.28;;
44026;SDS011;29696;55.698;37.460;2023-05-29T03:03:09;4.25;;;2.38;;
44026;SDS011;29696;55.698;37.460;2023-05-29T03:05:38;5.20;;;2.80;;
44026;SDS011;29696;55.698;37.460;2023-05-29T03:08:05;6.93;;;3.45;;
44026;SDS011;29696;55.698;37.460;2023-05-29T03:10:31;7.35;;;4.22;;
44026;SDS011;29696;55.698;37.460;2023-05-29T03:12:58;7.63;;;3.35;;
44026;SDS011;29696;55.698;37.460;2023-05-29T03:15:24;9.65;;;3.83;;
44026;SDS011;29696;55.698;37.460;2023-05-29T03:17:51;7.72;;;2.90;;
44026;SDS011;29696;55.698;37.460;2023-05-29T03:20:22;8.07;;;3.28;;
44026;SDS011;29696;55.698;37.460;2023-05-29T03:22:54;9.68;;;3.42;;
44026;SDS011;29696;55.698;37.460;2023-05-29T03:25:20;6.63;;;3.22;;
44026;SDS011;29696;55.698;37.460;2023-05-29T03:27:47;8.95;;;3.63;;
44026;SDS011;29696;55.698;37.460;2023-05-29T03:30:18;5.90;;;3.75;;
44026;SDS011;29696;55.698;37.460;2023-05-29T03:32:49;4.40;;;2.70;;
44026;SDS011;29696;55.698;37.460;2023-05-29T03:35:16;6.15;;;3.30;;
44026;SDS011;29696;55.698;37.460;2023-05-29T03:37:43;5.45;;;3.90;;
44026;SDS011;29696;55.698;37.460;2023-05-29T03:40:10;21.02;;;3.45;;
44026;SDS011;29696;55.698;37.460;2023-05-29T03:42:37;8.52;;;3.90;;
44026;SDS011;29696;55.698;37.460;2023-05-29T03:45:04;7.88;;;4.57;;
44026;SDS011;29696;55.698;37.460;2023-05-29T03:47:33;12.93;;;4.82;;
44026;SDS011;29696;55.698;37.460;2023-05-29T03:50:00;10.25;;;4.70;;
44026;SDS011;29696;55.698;37.460;2023-05-29T03:52:30;8.85;;;4.85;;
44026;SDS011;29696;55.698;37.460;2023-05-29T03:54:57;9.07;;;4.63;;
44026;SDS011;29696;55.698;37.460;2023-05-29T03:57:23;7.30;;;4.05;;
44026;SDS011;29696;55.698;37.460;2023-05-29T03:59:51;12.43;;;4.00;;
44026;SDS011;29696;55.698;37.460;2023-05-29T04:02:17;6.38;;;3.17;;
44026;SDS011;29696;55.698;37.460;2023-05-29T04:04:44;6.57;;;3.75;;
44026;SDS011;29696;55.698;37.460;2023-05-29T04:07:11;8.55;;;4.38;;
44026;SDS011;29696;55.698;37.460;2023-05-29T04:09:37;14.40;;;4.40;;
44026;SDS011;29696;55.698;37.460;2023-05-29T04:12:04;6.57;;;4.35;;
44026;SDS011;29696;55.698;37.460;2023-05-29T04:14:34;10.63;;;4.15;;
44026;SDS011;29696;55.698;37.460;2023-05-29T04:17:00;11.57;;;4.55;;
44026;SDS011;29696;55.698;37.460;2023-05-29T04:19:27;13.88;;;4.70;;
44026;SDS011;29696;55.698;37.460;2023-05-29T04:21:53;16.33;;;4.13;;
44026;SDS011;29696;55.698;37.460;2023-05-29T04:24:20;8.93;;;5.07;;
44026;SDS011;29696;55.698;37.460;2023-05-29T04:26:46;13.15;;;3.35;;
44026;SDS011;29696;55.698;37.460;2023-05-29T04:29:13;13.52;;;5.28;;
44026;SDS011;29696;55.698;37.460;2023-05-29T04:31:40;9.23;;;4.22;;
44026;SDS011;29696;55.698;37.460;2023-05-29T04:34:07;9.57;;;5.60;;
44026;SDS011;29696;55.698;37.460;2023-05-29T04:36:34;9.05;;;3.42;;
44026;SDS011;29696;55.698;37.460;2023-05-29T04:39:10;9.90;;;4.53;;
44026;SDS011;29696;55.698;37.460;2023-05-29T04:41:37;7.57;;;3.85;;
44026;SDS011;29696;55.698;37.460;2023-05-29T04:44:10;9.48;;;4.38;;
44026;SDS011;29696;55.698;37.460;2023-05-29T04:46:44;8.50;;;5.20;;
44026;SDS011;29696;55.698;37.460;2023-05-29T04:49:13;6.97;;;4.90;;
44026;SDS011;29696;55.698;37.460;2023-05-29T04:51:39;13.25;;;5.30;;
44026;SDS011;29696;55.698;37.460;2023-05-29T04:54:07;9.70;;;4.78;;
44026;SDS011;29696;55.698;37.460;2023-05-29T04:56:35;8.20;;;5.20;;
44026;SDS011;29696;55.698;37.460;2023-05-29T04:59:03;8.35;;;4.60;;
44026;SDS011;29696;55.698;37.460;2023-05-29T05:01:29;11.15;;;4.15;;
44026;SDS011;29696;55.698;37.460;2023-05-29T05:04:00;4.97;;;3.08;;
44026;SDS011;29696;55.698;37.460;2023-05-29T05:06:26;4.72;;;2.83;;
44026;SDS011;29696;55.698;37.460;2023-05-29T05:08:53;12.75;;;4.97;;
44026;SDS011;29696;55.698;37.460;2023-05-29T05:11:22;14.40;;;5.63;;
44026;SDS011;29696;55.698;37.460;2023-05-29T05:13:49;7.40;;;4.47;;
44026;SDS011;29696;55.698;37.460;2023-05-29T05:16:17;10.38;;;5.15;;
44026;SDS011;29696;55.698;37.460;2023-05-29T05:18:44;10.85;;;4.25;;
44026;SDS011;29696;55.698;37.460;2023-05-29T05:21:11;8.23;;;4.40;;
44026;SDS011;29696;55.698;37.460;2023-05-29T05:23:37;5.20;;;3.38;;
44026;SDS011;29696;55.698;37.460;2023-05-29T05:26:03;6.45;;;3.53;;
44026;SDS011;29696;55.698;37.460;2023-05-29T05:28:33;7.47;;;3.28;;
44026;SDS011;29696;55.698;37.460;2023-05-29T05:31:00;8.25;;;3.03;;
44026;SDS011;29696;55.698;37.460;2023-05-29T05:33:31;8.73;;;3.08;;
44026;SDS011;29696;55.698;37.460;2023-05-29T05:35:58;7.30;;;3.38;;
44026;SDS011;29696;55.698;37.460;2023-05-29T05:38:24;4.15;;;2.03;;
44026;SDS011;29696;55.698;37.460;2023-05-29T05:40:51;5.03;;;2.92;;
44026;SDS011;29696;55.698;37.460;2023-05-29T05:43:24;2.03;;;1.83;;
44026;SDS011;29696;55.698;37.460;2023-05-29T05:46:10;3.80;;;2.00;;
44026;SDS011;29696;55.698;37.460;2023-05-29T05:48:37;3.00;;;2.20;;
44026;SDS011;29696;55.698;37.460;2023-05-29T05:51:03;5.82;;;2.17;;
44026;SDS011;29696;55.698;37.460;2023-05-29T05:53:31;3.35;;;1.30;;
44026;SDS011;29696;55.698;37.460;2023-05-29T05:55:57;3.63;;;2.10;;
44026;SDS011;29696;55.698;37.460;2023-05-29T05:58:25;5.57;;;1.83;;
44026;SDS011;29696;55.698;37.460;2023-05-29T06:00:51;2.80;;;1.52;;
44026;SDS011;29696;55.698;37.460;2023-05-29T06:03:19;2.17;;;1.98;;
44026;SDS011;29696;55.698;37.460;2023-05-29T06:05:53;1.45;;;1.35;;
44026;SDS011;29696;55.698;37.460;2023-05-29T06:08:20;1.52;;;1.42;;
44026;SDS011;29696;55.698;37.460;2023-05-29T06:10:46;3.72;;;1.67;;
44026;SDS011;29696;55.698;37.460;2023-05-29T06:13:13;1.85;;;1.35;;
44026;SDS011;29696;55.698;37.460;2023-05-29T06:15:45;5.65;;;1.52;;
44026;SDS011;29696;55.698;37.460;2023-05-29T06:18:12;1.98;;;1.30;;
44026;SDS011;29696;55.698;37.460;2023-05-29T06:20:39;1.40;;;1.30;;
44026;SDS011;29696;55.698;37.460;2023-05-29T06:23:07;1.33;;;1.15;;
44026;SDS011;29696;55.698;37.460;2023-05-29T06:25:35;2.03;;;1.42;;
44026;SDS011;29696;55.698;37.460;2023-05-29T06:28:02;3.92;;;1.65;;
44026;SDS011;29696;55.698;37.460;2023-05-29T06:30:30;1.58;;;1.48;;
44026;SDS011;29696;55.698;37.460;2023-05-29T06:32:56;3.05;;;1.27;;
44026;SDS011;29696;55.698;37.460;2023-05-29T06:35:29;6.53;;;1.30;;
44026;SDS011;29696;55.698;37.460;2023-05-29T06:37:56;1.30;;;1.20;;
44026;SDS011;29696;55.698;37.460;2023-05-29T06:40:22;5.35;;;1.23;;
44026;SDS011;29696;55.698;37.460;2023-05-29T06:42:49;6.20;;;1.35;;
44026;SDS011;29696;55.698;37.460;2023-05-29T06:45:15;1.30;;;1.10;;
44026;SDS011;29696;55.698;37.460;2023-05-29T06:47:42;1.25;;;1.15;;
44026;SDS011;29696;55.698;37.460;2023-05-29T06:50:09;1.00;;;0.90;;
44026;SDS011;29696;55.698;37.460;2023-05-29T06:52:37;4.10;;;1.83;;
44026;SDS011;29696;55.698;37.460;2023-05-29T06:55:23;7.25;;;1.55;;
44026;SDS011;29696;55.698;37.460;2023-05-29T06:57:50;3.05;;;1.95;;
44026;SDS011;29696;55.698;37.460;2023-05-29T07:00:17;6.22;;;1.20;;
44026;SDS011;29696;55.698;37.460;2023-05-29T07:02:53;3.95;;;1.50;;
44026;SDS011;29696;55.698;37.460;2023-05-29T07:05:20;6.47;;;1.40;;
44026;SDS011;29696;55.698;37.460;2023-05-29T07:07:47;1.15;;;1.05;;
44026;SDS011;29696;55.698;37.460;2023-05-29T07:10:13;4.47;;;2.38;;
44026;SDS011;29696;55.698;37.460;2023-05-29T07:12:40;2.35;;;1.65;;
44026;SDS011;29696;55.698;37.460;2023-05-29T07:15:06;2.38;;;1.20;;
44026;SDS011;29696;55.698;37.460;2023-05-29T07:17:34;1.33;;;1.20;;
44026;SDS011;29696;55.698;37.460;2023-05-29T07:20:14;1.58;;;0.98;;
44026;SDS011;29696;55.698;37.460;2023-05-29T07:22:41;2.35;;;1.52;;
44026;SDS011;29696;55.698;37.460;2023-05-29T07:25:08;3.08;;;1.25;;
44026;SDS011;29696;55.698;37.460;2023-05-29T07:27:35;1.30;;;1.20;;
44026;SDS011;29696;55.698;37.460;2023-05-29T07:30:02;1.75;;;1.60;;
44026;SDS011;29696;55.698;37.460;2023-05-29T07:32:31;3.90;;;1.92;;
44026;SDS011;29696;55.698;37.460;2023-05-29T07:34:58;3.30;;;1.63;;
44026;SDS011;29696;55.698;37.460;2023-05-29T07:37:25;5.63;;;1.40;;
44026;SDS011;29696;55.698;37.460;2023-05-29T07:39:52;3.42;;;1.50;;
44026;SDS011;29696;55.698;37.460;2023-05-29T07:42:41;3.70;;;2.20;;
44026;SDS011;29696;55.698;37.460;2023-05-29T07:45:08;2.65;;;1.58;;
44026;SDS011;29696;55.698;37.460;2023-05-29T07:47:35;2.58;;;2.10;;
44026;SDS011;29696;55.698;37.460;2023-05-29T07:50:02;5.03;;;2.70;;
44026;SDS011;29696;55.698;37.460;2023-05-29T07:52:31;7.00;;;2.53;;
44026;SDS011;29696;55.698;37.460;2023-05-29T07:54:58;1.55;;;1.40;;
44026;SDS011;29696;55.698;37.460;2023-05-29T07:57:25;3.75;;;1.50;;
44026;SDS011;29696;55.698;37.460;2023-05-29T07:59:53;1.42;;;1.27;;
44026;SDS011;29696;55.698;37.460;2023-05-29T08:02:20;3.35;;;1.40;;
44026;SDS011;29696;55.698;37.460;2023-05-29T08:05:16;1.48;;;1.17;;
44026;SDS011;29696;55.698;37.460;2023-05-29T08:07:42;3.88;;;1.50;;
44026;SDS011;29696;55.698;37.460;2023-05-29T08:10:09;3.00;;;1.27;;
44026;SDS011;29696;55.698;37.460;2023-05-29T08:12:36;3.90;;;1.85;;
44026;SDS011;29696;55.698;37.460;2023-05-29T08:15:03;1.83;;;1.70;;
44026;SDS011;29696;55.698;37.460;2023-05-29T08:17:30;1.42;;;1.30;;
44026;SDS011;29696;55.698;37.460;2023-05-29T08:19:57;1.83;;;1.30;;
44026;SDS011;29696;55.698;37.460;2023-05-29T08:22:27;3.22;;;1.58;;
44026;SDS011;29696;55.698;37.460;2023-05-29T08:24:55;2.70;;;1.67;;
44026;SDS011;29696;55.698;37.460;2023-05-29T08:27:22;2.42;;;1.25;;
44026;SDS011;29696;55.698;37.460;2023-05-29T08:29:48;5.03;;;1.58;;
44026;SDS011;29696;55.698;37.460;2023-05-29T08:32:15;2.15;;;1.45;;
44026;SDS011;29696;55.698;37.460;2023-05-29T08:34:41;6.55;;;1.75;;
44026;SDS011;29696;55.698;37.460;2023-05-29T08:37:07;3.90;;;1.60;;
44026;SDS011;29696;55.698;37.460;2023-05-29T08:39:34;5.05;;;2.28;;
44026;SDS011;29696;55.698;37.460;2023-05-29T08:44:55;1.85;;;1.40;;
44026;SDS011;29696;55.698;37.460;2023-05-29T08:47:26;3.78;;;1.73;;
44026;SDS011;29696;55.698;37.460;2023-05-29T08:49:53;4.88;;;2.75;;
44026;SDS011;29696;55.698;37.460;2023-05-29T08:52:23;4.60;;;2.00;;
44026;SDS011;29696;55.698;37.460;2023-05-29T08:54:51;1.10;;;1.00;;
44026;SDS011;29696;55.698;37.460;2023-05-29T08:57:19;6.68;;;1.60;;
44026;SDS011;29696;55.698;37.460;2023-05-29T08:59:46;3.80;;;1.55;;
44026;SDS011;29696;55.698;37.460;2023-05-29T09:02:17;2.08;;;1.75;;
44026;SDS011;29696;55.698;37.460;2023-05-29T09:04:43;1.80;;;1.20;;
44026;SDS011;29696;55.698;37.460;2023-05-29T09:07:18;3.33;;;1.77;;
44026;SDS011;29696;55.698;37.460;2023-05-29T09:09:45;19.70;;;2.10;;
44026;SDS011;29696;55.698;37.460;2023-05-29T09:12:12;4.50;;;1.65;;
44026;SDS011;29696;55.698;37.460;2023-05-29T09:14:40;2.15;;;1.38;;
44026;SDS011;29696;55.698;37.460;2023-05-29T09:17:09;3.85;;;1.45;;
44026;SDS011;29696;55.698;37.460;2023-05-29T09:19:36;4.82;;;1.35;;
44026;SDS011;29696;55.698;37.460;2023-05-29T09:22:07;1.75;;;1.60;;
44026;SDS011;29696;55.698;37.460;2023-05-29T09:24:36;4.00;;;1.90;;
44026;SDS011;29696;55.698;37.460;2023-05-29T09:27:04;7.63;;;2.58;;
44026;SDS011;29696;55.698;37.460;2023-05-29T09:29:44;12.45;;;2.70;;
44026;SDS011;29696;55.698;37.460;2023-05-29T09:32:15;8.40;;;1.73;;
44026;SDS011;29696;55.698;37.460;2023-05-29T09:34:43;2.03;;;1.45;;
44026;SDS011;29696;55.698;37.460;2023-05-29T09:37:11;1.90;;;1.40;;
44026;SDS011;29696;55.698;37.460;2023-05-29T09:42:29;5.47;;;1.60;;
44026;SDS011;29696;55.698;37.460;2023-05-29T09:44:56;2.28;;;1.45;;
44026;SDS011;29696;55.698;37.460;2023-05-29T09:47:26;1.38;;;1.17;;
44026;SDS011;29696;55.698;37.460;2023-05-29T09:50:00;1.90;;;1.60;;
44026;SDS011;29696;55.698;37.460;2023-05-29T09:52:28;3.10;;;1.30;;
44026;SDS011;29696;55.698;37.460;2023-05-29T09:54:56;3.47;;;1.25;;
44026;SDS011;29696;55.698;37.460;2023-05-29T09:57:23;4.70;;;2.10;;
44026;SDS011;29696;55.698;37.460;2023-05-29T09:59:51;4.03;;;1.83;;
44026;SDS011;29696;55.698;37.460;2023-05-29T10:02:18;2.45;;;1.13;;
44026;SDS011;29696;55.698;37.460;2023-05-29T10:04:45;2.08;;;1.63;;
44026;SDS011;29696;55.698;37.460;2023-05-29T10:07:22;2.92;;;1.55;;
44026;SDS011;29696;55.698;37.460;2023-05-29T10:10:00;2.47;;;1.73;;
44026;SDS011;29696;55.698;37.460;2023-05-29T10:12:36;5.95;;;1.45;;
44026;SDS011;29696;55.698;37.460;2023-05-29T10:15:06;2.25;;;1.45;;
44026;SDS011;29696;55.698;37.460;2023-05-29T10:17:53;4.82;;;1.80;;
44026;SDS011;29696;55.698;37.460;2023-05-29T10:20:26;1.30;;;1.20;;
44026;SDS011;29696;55.698;37.460;2023-05-29T10:22:54;1.95;;;1.15;;
44026;SDS011;29696;55.698;37.460;2023-05-29T10:25:22;6.28;;;1.92;;
44026;SDS011;29696;55.698;37.460;2023-05-29T10:27:53;3.38;;;1.50;;
44026;SDS011;29696;55.698;37.460;2023-05-29T10:30:34;1.85;;;1.35;;
44026;SDS011;29696;55.698;37.460;2023-05-29T10:36:14;4.32;;;1.23;;
44026;SDS011;29696;55.698;37.460;2023-05-29T10:38:44;6.65;;;1.98;;
44026;SDS011;29696;55.698;37.460;2023-05-29T10:44:53;2.22;;;1.73;;
44026;SDS011;29696;55.698;37.460;2023-05-29T10:47:23;8.25;;;1.63;;
44026;SDS011;29696;55.698;37.460;2023-05-29T10:49:50;2.58;;;1.45;;
44026;SDS011;29696;55.698;37.460;2023-05-29T10:52:18;1.63;;;1.40;;
44026;SDS011;29696;55.698;37.460;2023-05-29T10:54:49;1.52;;;1.05;;
44026;SDS011;29696;55.698;37.460;2023-05-29T10:57:19;2.03;;;1.20;;
44026;SDS011;29696;55.698;37.460;2023-05-29T10:59:47;4.82;;;1.52;;
44026;SDS011;29696;55.698;37.460;2023-05-29T11:02:21;3.03;;;1.00;;
44026;SDS011;29696;55.698;37.460;2023-05-29T11:05:04;1.95;;;1.05;;
44026;SDS011;29696;55.698;37.460;2023-05-29T11:07:56;1.75;;;1.27;;
44026;SDS011;29696;55.698;37.460;2023-05-29T11:10:43;3.28;;;1.00;;
44026;SDS011;29696;55.698;37.460;2023-05-29T11:13:24;3.28;;;2.13;;
44026;SDS011;29696;55.698;37.460;2023-05-29T11:16:19;3.97;;;1.48;;
44026;SDS011;29696;55.698;37.460;2023-05-29T11:19:06;4.40;;;2.20;;
44026;SDS011;29696;55.698;37.460;2023-05-29T11:24:41;2.72;;;1.73;;
44026;SDS011;29696;55.698;37.460;2023-05-29T11:27:07;6.28;;;1.20;;
44026;SDS011;29696;55.698;37.460;2023-05-29T11:29:34;3.15;;;1.48;;
44026;SDS011;29696;55.698;37.460;2023-05-29T11:32:02;3.20;;;1.85;;
44026;SDS011;29696;55.698;37.460;2023-05-29T11:34:36;4.47;;;1.58;;
44026;SDS011;29696;55.698;37.460;2023-05-29T11:37:06;3.03;;;1.50;;
44026;SDS011;29696;55.698;37.460;2023-05-29T11:39:36;4.45;;;1.42;;
44026;SDS011;29696;55.698;37.460;2023-05-29T11:42:03;10.20;;;1.58;;
44026;SDS011;29696;55.698;37.460;2023-05-29T11:44:31;4.25;;;1.88;;
44026;SDS011;29696;55.698;37.460;2023-05-29T11:47:04;5.63;;;2.00;;
44026;SDS011;29696;55.698;37.460;2023-05-29T11:49:33;2.60;;;1.60;;
44026;SDS011;29696;55.698;37.460;2023-05-29T11:52:09;2.22;;;1.70;;
44026;SDS011;29696;55.698;37.460;2023-05-29T11:54:37;3.00;;;2.08;;
44026;SDS011;29696;55.698;37.460;2023-05-29T11:57:03;3.88;;;1.75;;
44026;SDS011;29696;55.698;37.460;2023-05-29T11:59:32;1.85;;;1.30;;
44026;SDS011;29696;55.698;37.460;2023-05-29T12:02:02;3.72;;;1.83;;
44026;SDS011;29696;55.698;37.460;2023-05-29T12:04:29;3.58;;;2.00;;
44026;SDS011;29696;55.698;37.460;2023-05-29T12:06:55;5.05;;;1.75;;
44026;SDS011;29696;55.698;37.460;2023-05-29T12:09:29;4.28;;;1.77;;
44026;SDS011;29696;55.698;37.460;2023-05-29T12:12:05;3.15;;;2.15;;
44026;SDS011;29696;55.698;37.460;2023-05-29T12:14:32;1.48;;;1.38;;
44026;SDS011;29696;55.698;37.460;2023-05-29T12:16:59;4.22;;;1.50;;
44026;SDS011;29696;55.698;37.460;2023-05-29T12:19:25;3.35;;;1.95;;
44026;SDS011;29696;55.698;37.460;2023-05-29T12:21:52;4.68;;;1.70;;
44026;SDS011;29696;55.698;37.460;2023-05-29T12:24:19;8.20;;;3.10;;
44026;SDS011;29696;55.698;37.460;2023-05-29T12:26:45;2.55;;;1.92;;
44026;SDS011;29696;55.698;37.460;2023-05-29T12:29:15;6.03;;;1.67;;
44026;SDS011;29696;55.698;37.460;2023-05-29T12:31:41;1.88;;;1.33;;
44026;SDS011;29696;55.698;37.460;2023-05-29T12:34:08;3.38;;;1.33;;
44026;SDS011;29696;55.698;37.460;2023-05-29T12:36:43;2.20;;;1.63;;
44026;SDS011;29696;55.698;37.460;2023-05-29T12:39:10;4.85;;;4.38;;
44026;SDS011;29696;55.698;37.460;2023-05-29T12:41:37;7.18;;;2.47;;
44026;SDS011;29696;55.698;37.460;2023-05-29T12:44:06;7.53;;;2.78;;
44026;SDS011;29696;55.698;37.460;2023-05-29T12:46:39;6.47;;;3.60;;
44026;SDS011;29696;55.698;37.460;2023-05-29T12:49:12;9.52;;;3.03;;
44026;SDS011;29696;55.698;37.460;2023-05-29T12:52:04;7.45;;;2.45;;
44026;SDS011;29696;55.698;37.460;2023-05-29T12:54:33;2.90;;;1.58;;
44026;SDS011;29696;55.698;37.460;2023-05-29T12:57:00;5.50;;;2.47;;
44026;SDS011;29696;55.698;37.460;2023-05-29T12:59:27;4.00;;;2.45;;
44026;SDS011;29696;55.698;37.460;2023-05-29T13:01:54;6.47;;;4.30;;
44026;SDS011;29696;55.698;37.460;2023-05-29T13:04:21;5.55;;;2.58;;
44026;SDS011;29696;55.698;37.460;2023-05-29T13:06:48;3.58;;;1.95;;
44026;SDS011;29696;55.698;37.460;2023-05-29T13:09:14;4.65;;;1.60;;
44026;SDS011;29696;55.698;37.460;2023-05-29T13:11:41;6.65;;;1.98;;
44026;SDS011;29696;55.698;37.460;2023-05-29T13:14:07;5.53;;;2.17;;
44026;SDS011;29696;55.698;37.460;2023-05-29T13:16:34;6.63;;;2.85;;
44026;SDS011;29696;55.698;37.460;2023-05-29T13:19:01;4.70;;;1.98;;
44026;SDS011;29696;55.698;37.460;2023-05-29T13:21:28;5.10;;;2.10;;
44026;SDS011;29696;55.698;37.460;2023-05-29T13:23:54;4.95;;;1.73;;
44026;SDS011;29696;55.698;37.460;2023-05-29T13:26:21;5.82;;;1.50;;
44026;SDS011;29696;55.698;37.460;2023-05-29T13:28:47;3.58;;;2.80;;
44026;SDS011;29696;55.698;37.460;2023-05-29T13:31:14;1.75;;;1.38;;
44026;SDS011;29696;55.698;37.460;2023-05-29T13:33:40;3.08;;;1.80;;
44026;SDS011;29696;55.698;37.460;2023-05-29T13:36:07;6.22;;;2.13;;
44026;SDS011;29696;55.698;37.460;2023-05-29T13:38:33;3.95;;;1.60;;
44026;SDS011;29696;55.698;37.460;2023-05-29T13:41:00;5.70;;;2.00;;
44026;SDS011;29696;55.698;37.460;2023-05-29T13:43:26;5.07;;;1.60;;
44026;SDS011;29696;55.698;37.460;2023-05-29T13:45:53;3.53;;;1.50;;
44026;SDS011;29696;55.698;37.460;2023-05-29T13:48:19;2.58;;;1.80;;
44026;SDS011;29696;55.698;37.460;2023-05-29T13:50:45;5.43;;;1.83;;
44026;SDS011;29696;55.698;37.460;2023-05-29T13:53:12;7.07;;;2.10;;
44026;SDS011;29696;55.698;37.460;2023-05-29T13:55:38;3.97;;;1.73;;
44026;SDS011;29696;55.698;37.460;2023-05-29T13:58:05;5.35;;;2.50;;
44026;SDS011;29696;55.698;37.460;2023-05-29T14:00:31;5.30;;;3.15;;
44026;SDS011;29696;55.698;37.460;2023-05-29T14:02:58;3.15;;;1.98;;
44026;SDS011;29696;55.698;37.460;2023-05-29T14:05:25;7.57;;;1.88;;
44026;SDS011;29696;55.698;37.460;2023-05-29T14:07:51;3.58;;;2.25;;
44026;SDS011;29696;55.698;37.460;2023-05-29T14:10:18;4.22;;;1.75;;
44026;SDS011;29696;55.698;37.460;2023-05-29T14:12:45;2.53;;;1.50;;
44026;SDS011;29696;55.698;37.460;2023-05-29T14:15:12;1.83;;;1.23;;
44026;SDS011;29696;55.698;37.460;2023-05-29T14:17:38;4.95;;;1.90;;
44026;SDS011;29696;55.698;37.460;2023-05-29T14:20:05;8.57;;;2.33;;
44026;SDS011;29696;55.698;37.460;2023-05-29T14:22:34;7.72;;;2.63;;
44026;SDS011;29696;55.698;37.460;2023-05-29T14:25:03;5.72;;;1.80;;
44026;SDS011;29696;55.698;37.460;2023-05-29T14:27:32;7.80;;;2.20;;
44026;SDS011;29696;55.698;37.460;2023-05-29T14:29:59;8.70;;;2.00;;
44026;SDS011;29696;55.698;37.460;2023-05-29T14:32:26;2.03;;;1.63;;
44026;SDS011;29696;55.698;37.460;2023-05-29T14:34:52;5.53;;;2.05;;
44026;SDS011;29696;55.698;37.460;2023-05-29T14:37:19;6.03;;;2.33;;
44026;SDS011;29696;55.698;37.460;2023-05-29T14:39:45;5.75;;;2.10;;
44026;SDS011;29696;55.698;37.460;2023-05-29T14:42:12;2.50;;;1.88;;
44026;SDS011;29696;55.698;37.460;2023-05-29T14:44:38;6.47;;;1.45;;
44026;SDS011;29696;55.698;37.460;2023-05-29T14:47:05;5.93;;;2.20;;
44026;SDS011;29696;55.698;37.460;2023-05-29T14:49:31;4.00;;;1.98;;
44026;SDS011;29696;55.698;37.460;2023-05-29T14:51:59;1.40;;;1.30;;
44026;SDS011;29696;55.698;37.460;2023-05-29T14:54:25;4.57;;;1.80;;
44026;SDS011;29696;55.698;37.460;2023-05-29T14:56:53;4.22;;;1.42;;
44026;SDS011;29696;55.698;37.460;2023-05-29T14:59:20;10.40;;;2.00;;
44026;SDS011;29696;55.698;37.460;2023-05-29T15:01:46;3.97;;;1.55;;
44026;SDS011;29696;55.698;37.460;2023-05-29T15:04:13;3.67;;;1.65;;
44026;SDS011;29696;55.698;37.460;2023-05-29T15:06:39;2.85;;;1.27;;